createdAt,value
2022-12-03T00:02:20.165Z,23.05
2022-12-03T00:04:46.791Z,25.83
2022-12-03T00:07:13.442Z,24.75
2022-12-03T00:09:39.983Z,24.48
2022-12-03T00:12:06.773Z,24.83
2022-12-03T00:14:33.599Z,25.40
2022-12-03T00:17:00.089Z,25.92
2022-12-03T00:19:26.733Z,24.15
2022-12-03T00:21:53.290Z,26.30
2022-12-03T00:24:19.850Z,24.65
2022-12-03T00:26:46.372Z,24.30
2022-12-03T00:29:13.073Z,24.92
2022-12-03T00:31:39.738Z,25.98
2022-12-03T00:34:06.318Z,24.77
2022-12-03T00:36:32.867Z,25.80
2022-12-03T00:38:59.834Z,26.42
2022-12-03T00:41:26.372Z,24.80
2022-12-03T00:43:57.495Z,25.92
2022-12-03T00:46:25.204Z,25.63
2022-12-03T00:48:51.931Z,26.02
2022-12-03T00:51:18.615Z,25.63
2022-12-03T00:53:45.084Z,25.08
2022-12-03T00:56:11.627Z,26.27
2022-12-03T00:58:38.177Z,25.25
2022-12-03T01:01:04.835Z,23.83
2022-12-03T01:03:31.390Z,26.75
2022-12-03T01:05:57.957Z,25.50
2022-12-03T01:08:24.402Z,25.63
2022-12-03T01:10:50.908Z,26.02
2022-12-03T01:13:17.412Z,26.52
2022-12-03T01:15:44.065Z,24.77
2022-12-03T01:18:10.747Z,28.13
2022-12-03T01:20:38.526Z,26.90
2022-12-03T01:23:05.615Z,26.10
2022-12-03T01:25:32.202Z,26.10
2022-12-03T01:27:58.799Z,24.63
2022-12-03T01:30:25.336Z,26.13
2022-12-03T01:32:52.079Z,27.70
2022-12-03T01:35:18.634Z,26.17
2022-12-03T01:37:45.165Z,27.23
2022-12-03T01:40:15.492Z,25.88
2022-12-03T01:46:56.785Z,26.58
2022-12-03T01:49:27.386Z,26.55
2022-12-03T01:51:55.512Z,26.45
2022-12-03T01:54:36.520Z,26.67
2022-12-03T01:57:03.209Z,27.17
2022-12-03T01:59:38.513Z,26.58
2022-12-03T02:02:28.222Z,26.35
2022-12-03T02:04:56.012Z,27.85
2022-12-03T02:07:24.383Z,26.77
2022-12-03T02:09:52.009Z,27.23
2022-12-03T02:12:22.897Z,27.38
2022-12-03T02:14:50.061Z,27.23
2022-12-03T02:17:17.494Z,27.38
2022-12-03T02:19:44.285Z,28.85
2022-12-03T02:22:23.186Z,27.98
2022-12-03T02:25:03.612Z,27.77
2022-12-03T02:27:30.265Z,27.77
2022-12-03T02:29:56.883Z,27.98
2022-12-03T02:32:23.670Z,27.23
2022-12-03T02:34:51.878Z,28.80
2022-12-03T02:37:26.037Z,27.02
2022-12-03T02:42:37.191Z,27.55
2022-12-03T02:45:11.175Z,27.45
2022-12-03T02:50:12.420Z,25.85
2022-12-03T02:52:40.158Z,28.15
2022-12-03T02:55:07.821Z,26.02
2022-12-03T02:57:36.710Z,28.20
2022-12-03T03:00:06.342Z,27.40
2022-12-03T03:02:33.572Z,27.67
2022-12-03T03:05:01.275Z,28.90
2022-12-03T03:07:28.106Z,27.80
2022-12-03T03:09:54.845Z,28.33
2022-12-03T03:12:21.422Z,26.02
2022-12-03T03:14:48.028Z,28.10
2022-12-03T03:17:14.682Z,28.90
2022-12-03T03:19:42.092Z,26.92
2022-12-03T03:22:10.760Z,29.25
2022-12-03T03:24:37.790Z,27.95
2022-12-03T03:27:05.287Z,28.45
2022-12-03T03:29:33.990Z,28.50
2022-12-03T03:32:02.257Z,30.05
2022-12-03T03:34:30.229Z,28.02
2022-12-03T03:36:56.830Z,30.35
2022-12-03T03:39:23.419Z,30.15
2022-12-03T03:41:49.976Z,29.85
2022-12-03T03:44:16.570Z,29.55
2022-12-03T03:46:43.379Z,30.67
2022-12-03T03:49:10.653Z,29.60
2022-12-03T03:51:38.505Z,30.08
2022-12-03T03:54:06.120Z,32.10
2022-12-03T03:56:33.661Z,29.52
2022-12-03T03:59:00.484Z,31.17
2022-12-03T04:01:27.786Z,31.48
2022-12-03T04:03:54.858Z,29.27
2022-12-03T04:06:21.486Z,29.77
2022-12-03T04:08:48.021Z,30.55
2022-12-03T04:11:33.192Z,31.38
2022-12-03T04:13:59.788Z,32.65
2022-12-03T04:16:26.406Z,31.60
2022-12-03T04:18:53.028Z,30.38
2022-12-03T04:21:41.265Z,30.63
2022-12-03T04:24:09.402Z,30.92
2022-12-03T04:26:54.562Z,32.00
2022-12-03T04:29:21.644Z,31.77
2022-12-03T04:32:06.806Z,32.72
2022-12-03T04:34:52.468Z,31.50
2022-12-03T04:37:19.360Z,33.85
2022-12-03T04:39:45.896Z,33.05
2022-12-03T04:42:12.452Z,33.53
2022-12-03T04:44:39.262Z,32.70
2022-12-03T04:47:18.171Z,32.05
2022-12-03T04:49:49.946Z,32.63
2022-12-03T04:52:18.545Z,32.53
2022-12-03T04:54:45.998Z,30.90
2022-12-03T04:57:12.808Z,32.38
2022-12-03T04:59:39.584Z,30.88
2022-12-03T05:02:07.221Z,30.75
2022-12-03T05:04:34.294Z,33.05
2022-12-03T05:07:00.876Z,31.17
2022-12-03T05:09:27.635Z,32.17
2022-12-03T05:11:54.195Z,31.58
2022-12-03T05:14:20.745Z,31.60
2022-12-03T05:16:47.344Z,30.60
2022-12-03T05:19:13.900Z,32.45
2022-12-03T05:21:40.479Z,33.22
2022-12-03T05:24:07.220Z,32.20
2022-12-03T05:26:33.882Z,34.40
2022-12-03T05:29:01.181Z,31.30
2022-12-03T05:31:27.768Z,30.75
2022-12-03T05:33:55.149Z,33.53
2022-12-03T05:36:21.831Z,31.30
2022-12-03T05:38:48.653Z,31.77
2022-12-03T05:41:33.706Z,31.52
2022-12-03T05:44:00.224Z,32.97
2022-12-03T05:46:26.926Z,31.48
2022-12-03T05:48:54.822Z,32.95
2022-12-03T05:51:21.374Z,31.27
2022-12-03T05:53:48.113Z,32.05
2022-12-03T05:56:14.653Z,32.78
2022-12-03T05:58:41.148Z,30.90
2022-12-03T06:01:07.731Z,32.88
2022-12-03T06:03:34.403Z,30.70
2022-12-03T06:06:01.036Z,32.45
2022-12-03T06:08:27.551Z,33.25
2022-12-03T06:10:54.131Z,31.38
2022-12-03T06:13:20.633Z,31.80
2022-12-03T06:15:47.270Z,31.35
2022-12-03T06:18:13.998Z,31.50
2022-12-03T06:20:40.543Z,32.78
2022-12-03T06:23:07.053Z,30.55
2022-12-03T06:25:33.633Z,30.52
2022-12-03T06:28:00.127Z,33.25
2022-12-03T06:30:26.681Z,32.83
2022-12-03T06:32:53.222Z,32.28
2022-12-03T06:35:19.750Z,31.52
2022-12-03T06:37:48.933Z,33.20
2022-12-03T06:40:16.756Z,32.15
2022-12-03T06:42:43.290Z,32.85
2022-12-03T06:45:10.133Z,33.72
2022-12-03T06:47:37.180Z,30.85
2022-12-03T06:50:05.330Z,30.88
2022-12-03T06:52:31.806Z,30.98
2022-12-03T06:54:58.377Z,31.42
2022-12-03T06:57:24.870Z,31.27
2022-12-03T06:59:51.538Z,32.10
2022-12-03T07:02:18.459Z,31.02
2022-12-03T07:04:52.770Z,31.45
2022-12-03T07:07:19.885Z,30.42
2022-12-03T07:09:46.420Z,31.48
2022-12-03T07:12:12.977Z,30.42
2022-12-03T07:14:39.904Z,31.63
2022-12-03T07:17:06.445Z,29.52
2022-12-03T07:19:33.309Z,30.90
2022-12-03T07:22:00.139Z,31.50
2022-12-03T07:24:26.643Z,30.88
2022-12-03T07:26:53.189Z,30.70
2022-12-03T07:29:19.885Z,29.77
2022-12-03T07:31:46.528Z,30.08
2022-12-03T07:34:13.241Z,30.30
2022-12-03T07:36:39.822Z,30.23
2022-12-03T07:39:06.460Z,29.90
2022-12-03T07:41:33.018Z,29.30
2022-12-03T07:43:59.559Z,30.48
2022-12-03T07:46:26.356Z,30.88
2022-12-03T07:48:53.099Z,31.48
2022-12-03T07:51:19.865Z,28.75
2022-12-03T07:53:46.450Z,32.35
2022-12-03T07:56:13.012Z,31.33
2022-12-03T07:58:39.842Z,32.67
2022-12-03T08:01:06.569Z,30.40
2022-12-03T08:03:33.157Z,30.55
2022-12-03T08:05:59.712Z,31.73
2022-12-03T08:08:26.326Z,32.80
2022-12-03T08:10:52.946Z,30.42
2022-12-03T08:13:19.994Z,33.33
2022-12-03T08:15:46.836Z,31.45
2022-12-03T08:18:21.314Z,30.48
2022-12-03T08:20:51.752Z,31.42
2022-12-03T08:23:21.280Z,29.77
2022-12-03T08:25:49.641Z,30.50
2022-12-03T08:28:22.004Z,30.40
2022-12-03T08:31:21.068Z,30.00
2022-12-03T08:33:49.553Z,29.75
2022-12-03T08:36:25.261Z,30.63
2022-12-03T08:38:57.112Z,30.27
2022-12-03T08:41:43.296Z,30.02
2022-12-03T08:44:32.474Z,28.70
2022-12-03T08:47:24.972Z,30.23
2022-12-03T08:49:57.954Z,30.77
2022-12-03T08:52:31.452Z,29.17
2022-12-03T08:54:58.153Z,30.85
2022-12-03T08:57:32.533Z,28.77
2022-12-03T09:00:23.065Z,28.40
2022-12-03T09:02:52.461Z,29.15
2022-12-03T09:05:22.480Z,28.95
2022-12-03T09:07:49.206Z,29.73
2022-12-03T09:10:15.914Z,31.52
2022-12-03T09:12:42.388Z,30.33
2022-12-03T09:15:09.267Z,28.70
2022-12-03T09:17:35.779Z,30.00
2022-12-03T09:20:02.430Z,30.38
2022-12-03T09:22:29.163Z,28.67
2022-12-03T09:24:55.926Z,29.52
2022-12-03T09:27:22.878Z,31.38
2022-12-03T09:29:50.439Z,28.70
2022-12-03T09:32:18.730Z,29.23
2022-12-03T09:34:47.124Z,28.83
2022-12-03T09:37:13.694Z,29.75
2022-12-03T09:39:40.257Z,28.95
2022-12-03T09:42:07.040Z,31.35
2022-12-03T09:44:34.787Z,30.15
2022-12-03T09:47:02.758Z,29.95
2022-12-03T09:49:31.935Z,31.42
2022-12-03T09:52:01.853Z,29.58
2022-12-03T09:54:29.806Z,28.45
2022-12-03T09:56:59.129Z,31.35
2022-12-03T09:59:27.824Z,30.48
2022-12-03T10:01:54.611Z,29.98
2022-12-03T10:04:21.416Z,28.55
2022-12-03T10:06:48.119Z,30.00
2022-12-03T10:09:20.839Z,30.15
2022-12-03T10:11:48.152Z,32.03
2022-12-03T10:14:17.068Z,29.73
2022-12-03T10:16:43.915Z,31.05
2022-12-03T10:19:19.545Z,30.23
2022-12-03T10:21:46.168Z,31.15
2022-12-03T10:24:21.578Z,31.73
2022-12-03T10:26:50.254Z,30.23
2022-12-03T10:29:22.685Z,30.67
2022-12-03T10:32:10.534Z,30.35
2022-12-03T10:34:40.117Z,29.63
2022-12-03T10:37:21.491Z,32.85
2022-12-03T10:40:08.434Z,30.00
2022-12-03T10:42:39.026Z,31.35
2022-12-03T10:45:15.227Z,30.67
2022-12-03T10:47:43.265Z,31.15
2022-12-03T10:50:19.488Z,30.23
2022-12-03T10:52:47.018Z,29.25
2022-12-03T10:55:14.984Z,29.55
2022-12-03T10:57:45.508Z,30.45
2022-12-03T11:00:20.321Z,30.08
2022-12-03T11:02:56.135Z,31.65
2022-12-03T11:05:29.463Z,32.13
2022-12-03T11:07:56.803Z,30.65
2022-12-03T11:10:24.034Z,30.88
2022-12-03T11:13:29.184Z,31.63
2022-12-03T11:15:56.322Z,31.63
2022-12-03T11:18:35.749Z,31.83
2022-12-03T11:21:13.972Z,33.30
2022-12-03T11:23:46.399Z,32.72
2022-12-03T11:26:19.212Z,34.47
2022-12-03T11:28:46.273Z,32.38
2022-12-03T11:31:37.811Z,34.17
2022-12-03T11:34:22.612Z,32.15
2022-12-03T11:37:11.122Z,32.78
2022-12-03T11:39:49.884Z,33.75
2022-12-03T11:42:28.811Z,32.63
2022-12-03T11:45:04.290Z,31.42
2022-12-03T11:48:01.521Z,33.22
2022-12-03T11:50:39.844Z,32.13
2022-12-03T11:53:22.788Z,34.33
2022-12-03T11:56:06.537Z,31.65
2022-12-03T11:58:34.867Z,31.08
2022-12-03T12:01:04.838Z,31.35
2022-12-03T12:03:50.644Z,28.95
2022-12-03T12:06:20.443Z,32.20
2022-12-03T12:08:50.686Z,31.02
2022-12-03T12:11:34.453Z,30.48
2022-12-03T12:14:12.061Z,30.60
2022-12-03T12:16:50.982Z,30.90
2022-12-03T12:19:35.080Z,32.15
2022-12-03T12:22:24.115Z,30.23
2022-12-03T12:24:59.096Z,30.80
2022-12-03T12:27:35.716Z,30.77
2022-12-03T12:30:07.282Z,29.52
2022-12-03T12:33:06.299Z,29.17
2022-12-03T12:35:33.026Z,29.63
2022-12-03T12:38:12.830Z,28.50
2022-12-03T12:40:42.456Z,28.58
2022-12-03T12:43:20.447Z,28.92
2022-12-03T12:45:51.997Z,28.08
2022-12-03T12:48:28.183Z,29.25
2022-12-03T12:51:00.948Z,28.08
2022-12-03T12:53:31.359Z,29.33
2022-12-03T12:56:07.064Z,29.77
2022-12-03T12:58:34.364Z,27.73
2022-12-03T13:01:07.679Z,30.38
2022-12-03T13:03:39.373Z,27.48
2022-12-03T13:06:06.393Z,29.92
2022-12-03T13:08:39.336Z,28.60
2022-12-03T13:11:17.446Z,28.00
2022-12-03T13:13:44.602Z,28.35
2022-12-03T13:16:19.251Z,30.08
2022-12-03T13:18:53.850Z,28.30
2022-12-03T13:21:22.150Z,29.33
2022-12-03T13:23:54.633Z,29.80
2022-12-03T13:26:39.456Z,29.70
2022-12-03T13:29:18.227Z,30.17
2022-12-03T13:31:55.849Z,28.95
2022-12-03T13:34:33.526Z,29.73
2022-12-03T13:37:01.845Z,29.15
2022-12-03T13:39:35.051Z,32.00
2022-12-03T13:42:38.590Z,30.10
2022-12-03T13:45:17.346Z,30.38
2022-12-03T13:47:46.353Z,32.22
2022-12-03T13:50:34.382Z,30.75
2022-12-03T13:53:03.551Z,30.05
2022-12-03T13:55:31.745Z,31.60
2022-12-03T13:57:58.477Z,30.38
2022-12-03T14:00:25.106Z,31.80
2022-12-03T14:02:51.750Z,31.02
2022-12-03T14:05:21.081Z,31.65
2022-12-03T14:07:47.639Z,31.00
2022-12-03T14:10:14.350Z,30.85
2022-12-03T14:12:40.892Z,31.83
2022-12-03T14:15:10.453Z,30.27
2022-12-03T14:17:37.100Z,30.60
2022-12-03T14:20:04.714Z,30.83
2022-12-03T14:22:31.401Z,31.02
2022-12-03T14:24:58.048Z,30.75
2022-12-03T14:27:24.821Z,30.73
2022-12-03T14:29:52.032Z,30.73
2022-12-03T14:32:19.120Z,30.30
2022-12-03T14:34:45.785Z,30.50
2022-12-03T14:37:12.667Z,30.45
2022-12-03T14:39:39.576Z,31.02
2022-12-03T14:42:15.371Z,31.88
2022-12-03T14:44:47.667Z,33.08
2022-12-03T14:47:16.428Z,31.88
2022-12-03T14:49:43.026Z,35.47
2022-12-03T14:52:12.240Z,36.47
2022-12-03T14:54:41.980Z,35.47
2022-12-03T14:57:09.443Z,33.92
2022-12-03T14:59:35.984Z,33.05
2022-12-03T15:02:02.993Z,33.53
2022-12-03T15:04:29.667Z,31.60
2022-12-03T15:06:56.311Z,32.33
2022-12-03T15:09:22.872Z,31.77
2022-12-03T15:11:49.412Z,32.15
2022-12-03T15:14:15.914Z,33.13
2022-12-03T15:16:42.502Z,31.15
2022-12-03T15:19:09.377Z,33.25
2022-12-03T15:21:35.960Z,31.50
2022-12-03T15:24:04.021Z,33.25
2022-12-03T15:26:30.597Z,32.00
2022-12-03T15:28:57.176Z,32.60
2022-12-03T15:31:23.878Z,32.88
2022-12-03T15:33:50.521Z,32.13
2022-12-03T15:36:17.252Z,32.03
2022-12-03T15:38:43.923Z,32.05
2022-12-03T15:41:30.588Z,33.40
2022-12-03T15:43:59.902Z,32.60
2022-12-03T15:46:27.837Z,33.10
2022-12-03T15:48:55.578Z,30.75
2022-12-03T15:51:22.335Z,34.88
2022-12-03T15:53:49.210Z,30.45
2022-12-03T15:56:16.058Z,32.28
2022-12-03T15:58:43.193Z,32.00
2022-12-03T16:01:09.931Z,30.42
2022-12-03T16:03:36.974Z,31.70
2022-12-03T16:06:03.622Z,31.35
2022-12-03T16:08:48.289Z,33.38
2022-12-03T16:11:14.938Z,33.13
2022-12-03T16:13:41.528Z,32.05
2022-12-03T16:16:08.140Z,32.33
2022-12-03T16:18:34.874Z,32.97
2022-12-03T16:21:01.349Z,31.40
2022-12-03T16:23:27.896Z,32.90
2022-12-03T16:25:54.442Z,33.15
2022-12-03T16:28:21.080Z,33.92
2022-12-03T16:30:47.709Z,33.55
2022-12-03T16:33:14.357Z,36.22
2022-12-03T16:35:40.913Z,35.30
2022-12-03T16:38:07.477Z,35.20
2022-12-03T16:40:34.027Z,33.47
2022-12-03T16:43:03.278Z,37.17
2022-12-03T16:45:29.809Z,34.45
2022-12-03T16:47:56.346Z,35.42
2022-12-03T16:50:29.362Z,37.15
2022-12-03T16:52:57.572Z,38.63
2022-12-03T16:55:24.308Z,39.35
2022-12-03T16:57:51.048Z,40.75
2022-12-03T17:00:17.888Z,38.67
2022-12-03T17:02:44.516Z,36.53
2022-12-03T17:05:11.203Z,36.60
2022-12-03T17:07:38.037Z,36.50
2022-12-03T17:10:05.255Z,36.80
2022-12-03T17:13:00.656Z,34.22
2022-12-03T17:15:18.995Z,34.13
2022-12-03T17:17:45.574Z,35.15
2022-12-03T17:20:14.526Z,33.97
2022-12-03T17:22:41.742Z,34.75
2022-12-03T17:25:08.899Z,34.42
2022-12-03T17:27:38.682Z,34.75
2022-12-03T17:30:11.036Z,34.13
2022-12-03T17:32:37.671Z,34.53
2022-12-03T17:35:04.733Z,34.10
2022-12-03T17:37:31.307Z,34.20
2022-12-03T17:39:57.820Z,36.08
2022-12-03T17:42:24.482Z,36.20
2022-12-03T17:44:50.976Z,35.88
2022-12-03T17:47:17.589Z,36.58
2022-12-03T17:49:44.157Z,39.30
2022-12-03T17:52:10.865Z,37.20
2022-12-03T17:55:01.917Z,37.75
2022-12-03T17:57:24.444Z,36.55
2022-12-03T17:59:51.124Z,37.80
2022-12-03T18:02:17.895Z,37.08
2022-12-03T18:04:44.490Z,37.25
2022-12-03T18:15:09.325Z,37.67
2022-12-03T18:17:36.975Z,37.53
2022-12-03T18:20:04.270Z,37.15
2022-12-03T18:22:31.169Z,38.22
2022-12-03T18:24:57.889Z,37.45
2022-12-03T18:27:24.869Z,37.30
2022-12-03T18:29:51.732Z,38.53
2022-12-03T18:32:28.837Z,37.20
2022-12-03T18:34:56.473Z,37.67
2022-12-03T18:37:26.508Z,37.35
2022-12-03T18:39:53.487Z,37.78
2022-12-03T18:42:22.799Z,39.40
2022-12-03T18:44:51.318Z,38.20
2022-12-03T18:47:19.946Z,38.63
2022-12-03T18:49:47.019Z,39.10
2022-12-03T18:52:15.682Z,37.35
2022-12-03T18:54:42.797Z,38.78
2022-12-03T18:57:09.703Z,37.33
2022-12-03T18:59:37.021Z,37.30
2022-12-03T19:02:03.868Z,37.88
2022-12-03T19:04:30.859Z,39.58
2022-12-03T19:06:57.312Z,39.28
2022-12-03T19:09:23.790Z,39.92
2022-12-03T19:11:50.258Z,40.30
2022-12-03T19:14:16.742Z,38.70
2022-12-03T19:16:44.451Z,41.17
2022-12-03T19:19:11.131Z,39.33
2022-12-03T19:21:37.767Z,40.60
2022-12-03T19:24:23.766Z,40.90
2022-12-03T19:26:54.582Z,39.17
2022-12-03T19:29:24.593Z,39.10
2022-12-03T19:31:51.773Z,40.17
2022-12-03T19:34:18.709Z,39.63
2022-12-03T19:36:45.650Z,40.13
2022-12-03T19:39:12.124Z,39.70
2022-12-03T19:41:39.310Z,39.25
2022-12-03T19:44:10.765Z,41.25
2022-12-03T19:46:37.517Z,43.05
2022-12-03T19:49:04.820Z,41.65
2022-12-03T19:51:35.786Z,43.17
2022-12-03T19:54:07.035Z,40.13
2022-12-03T19:56:34.390Z,41.58
2022-12-03T19:59:00.980Z,39.30
2022-12-03T20:01:30.631Z,37.72
2022-12-03T20:03:58.765Z,39.08
2022-12-03T20:06:28.785Z,41.00
2022-12-03T20:08:57.956Z,39.42
2022-12-03T20:11:28.195Z,40.28
2022-12-03T20:13:57.120Z,39.35
2022-12-03T20:16:24.925Z,37.05
2022-12-03T20:18:55.337Z,37.78
2022-12-03T20:21:21.799Z,38.05
2022-12-03T20:23:48.295Z,37.08
2022-12-03T20:26:17.343Z,35.58
2022-12-03T20:28:44.592Z,37.10
2022-12-03T20:31:14.186Z,34.22
2022-12-03T20:33:43.712Z,36.92
2022-12-03T20:36:11.927Z,36.50
2022-12-03T20:38:38.763Z,36.03
2022-12-03T20:41:07.262Z,36.67
2022-12-03T20:43:34.235Z,34.58
2022-12-03T20:46:17.138Z,35.13
2022-12-03T20:48:44.905Z,35.05
2022-12-03T20:51:17.095Z,35.33
2022-12-03T20:53:44.529Z,34.35
2022-12-03T20:56:15.771Z,35.58
2022-12-03T20:58:42.248Z,34.05
2022-12-03T21:01:15.414Z,36.63
2022-12-03T21:03:43.035Z,34.40
2022-12-03T21:06:10.253Z,34.75
2022-12-03T21:08:41.640Z,35.55
2022-12-03T21:11:18.095Z,35.83
2022-12-03T21:13:45.902Z,34.15
2022-12-03T21:16:15.694Z,36.65
2022-12-03T21:18:42.690Z,35.05
2022-12-03T21:21:14.314Z,35.60
2022-12-03T21:23:41.252Z,36.30
2022-12-03T21:26:13.732Z,34.58
2022-12-03T21:28:41.604Z,35.42
2022-12-03T21:31:10.960Z,35.58
2022-12-03T21:33:38.179Z,35.95
2022-12-03T21:36:05.282Z,36.47
2022-12-03T21:38:32.329Z,36.75
2022-12-03T21:40:59.420Z,37.35
2022-12-03T21:43:26.537Z,36.53
2022-12-03T21:45:53.305Z,36.28
2022-12-03T21:48:20.306Z,37.25
2022-12-03T21:50:56.847Z,37.00
2022-12-03T21:53:23.273Z,35.08
2022-12-03T21:55:49.703Z,36.42
2022-12-03T21:58:16.147Z,35.58
2022-12-03T22:00:42.608Z,40.35
2022-12-03T22:03:09.084Z,39.38
2022-12-03T22:05:38.106Z,39.13
2022-12-03T22:08:05.195Z,39.38
2022-12-03T22:10:32.009Z,38.40
2022-12-03T22:12:58.424Z,36.45
2022-12-03T22:15:24.931Z,38.05
2022-12-03T22:17:51.388Z,37.25
2022-12-03T22:20:18.017Z,38.60
2022-12-03T22:22:44.629Z,37.78
2022-12-03T22:25:11.070Z,39.25
2022-12-03T22:27:37.534Z,37.25
2022-12-03T22:30:05.369Z,37.80
2022-12-03T22:32:31.838Z,38.55
2022-12-03T22:34:59.702Z,39.10
2022-12-03T22:37:26.112Z,37.15
2022-12-03T22:39:52.845Z,37.40
2022-12-03T22:42:19.637Z,36.40
2022-12-03T22:44:46.033Z,37.17
2022-12-03T22:47:12.497Z,37.28
2022-12-03T22:49:38.914Z,38.75
2022-12-03T22:52:07.181Z,38.17
2022-12-03T22:54:33.709Z,37.95
2022-12-03T22:57:00.160Z,38.63
2022-12-03T22:59:26.724Z,37.13
2022-12-03T23:01:53.128Z,39.03
2022-12-03T23:04:19.676Z,38.08
2022-12-03T23:06:48.750Z,38.78
2022-12-03T23:09:15.183Z,38.75
2022-12-03T23:11:43.425Z,36.65
2022-12-03T23:14:09.860Z,39.30
2022-12-03T23:16:36.364Z,37.72
2022-12-03T23:19:03.968Z,39.45
2022-12-03T23:21:33.416Z,40.65
2022-12-03T23:24:02.638Z,36.85
2022-12-03T23:26:29.628Z,38.15
2022-12-03T23:28:56.409Z,36.20
2022-12-03T23:31:29.412Z,38.90
2022-12-03T23:33:57.426Z,38.80
2022-12-03T23:36:26.355Z,37.70
2022-12-03T23:38:53.644Z,39.10
2022-12-03T23:41:21.725Z,38.25
2022-12-03T23:43:48.286Z,38.00
2022-12-03T23:46:18.297Z,37.45
2022-12-03T23:48:45.533Z,40.03
2022-12-03T23:51:17.874Z,38.50
2022-12-03T23:53:44.835Z,37.80
2022-12-03T23:56:18.283Z,38.70
2022-12-03T23:58:45.927Z,38.53
